Latest Weather Observations for Nuriootpa

IDS60901

Issued at 11:31 pm CST Sunday 24 September 2017 (issued every 10 minutes, with the page automatically refreshed every 10 minutes)

About weather observations | Map of Adelaide area stations | Latest observations for Adelaide area | Other Formats
Station Details ID: 023373 Name: NURIOOTPA PIRSA Lat: -34.48 Lon: 139.01 Height: 275.0 m
Data from the previous 72 hours. | See also: Recent months at Nuriootpa
Date/Time
CST
Temp
°C
App
Temp
°C
Dew
Point
°C
Rel
Hum
%
Delta-T
°C
Wind Press
QNH
hPa
Press
MSL
hPa
Rain since
9am
mm
Dir  Spd
km/h
Gust
km/h
Spd
kts
Gust
kts
24/11:00pm 8.6 4.1 6.0 84 1.2 W 19 28 10 15 1010.0 1010.0 0.0
24/10:30pm 9.1 4.4 6.1 81 1.4 W 20 30 11 16 1009.9 1009.9 0.0
24/10:00pm 9.8 4.4 6.4 79 1.6 W 24 32 13 17 1009.6 1009.6 0.0
24/09:30pm 10.2 5.2 6.6 78 1.7 W 22 32 12 17 1009.2 1009.1 0.0
24/09:00pm 10.4 4.6 6.4 76 1.9 WSW 26 39 14 21 1008.9 1008.8 0.0
24/08:30pm 10.7 4.0 5.8 72 2.3 WSW 30 43 16 23 1008.6 1008.5 0.0
24/08:00pm 10.9 3.7 5.1 67 2.7 W 32 41 17 22 1008.3 1008.2 0.0
24/07:30pm 11.2 3.9 5.4 67 2.7 W 33 46 18 25 1007.9 1007.8 0.0
24/07:00pm 11.4 4.1 5.4 66 2.8 W 33 44 18 24 1007.5 1007.4 0.0
24/06:30pm 11.8 4.9 4.7 62 3.3 W 30 41 16 22 1007.0 1006.9 0.0
24/06:03pm 12.4 5.1 5.4 62 3.3 W 33 54 18 29 1006.7 1006.6 0.0
24/06:00pm 12.5 5.2 5.6 63 3.3 W 33 44 18 24 1006.7 1006.6 0.0
24/05:49pm 12.9 5.7 5.8 62 3.4 WSW 33 52 18 28 1006.7 1006.6 0.0
24/05:30pm 13.5 5.8 5.3 57 3.9 W 35 50 19 27 1006.5 1006.5 0.0
24/05:19pm 13.9 6.2 5.3 56 4.1 W 35 54 19 29 1006.4 1006.4 0.0
24/05:00pm 14.3 6.5 5.1 54 4.4 W 35 52 19 28 1006.1 1006.0 0.0
24/04:30pm 14.9 6.8 5.4 53 4.6 W 37 54 20 29 1005.8 1005.7 0.0
24/04:28pm 14.9 7.1 5.1 52 4.7 W 35 54 19 29 1005.7 1005.6 0.0
24/04:00pm 15.2 6.4 5.5 52 4.7 W 41 54 22 29 1005.6 1005.5 0.0
24/03:30pm 15.2 5.8 4.5 49 5.1 W 43 63 23 34 1005.5 1005.4 0.0
24/03:06pm 16.3 6.8 4.1 44 5.8 W 43 63 23 34 1005.4 1005.3 0.0
24/03:00pm 16.3 6.8 4.1 44 5.8 W 43 57 23 31 1005.3 1005.2 0.0
24/02:51pm 16.0 7.2 3.6 43 5.8 W 39 57 21 31 1005.4 1005.3 0.0
24/02:30pm 16.2 7.2 4.5 45 5.6 W 41 56 22 30 1005.5 1005.4 0.0
24/02:10pm 15.7 7.1 4.9 48 5.2 W 39 57 21 31 1005.5 1005.4 0.0
24/02:00pm 16.0 6.8 3.6 43 5.8 W 41 54 22 29 1005.4 1005.3 0.0
24/01:30pm 15.9 6.8 3.8 44 5.7 W 41 59 22 32 1005.6 1005.5 0.0
24/01:00pm 16.1 6.6 3.8 44 5.8 W 43 61 23 33 1005.5 1005.4 0.0
24/12:35pm 15.1 5.7 4.6 49 5.0 WNW 43 61 23 33 1005.8 1005.7 0.0
24/12:30pm 15.4 5.6 3.6 45 5.5 WNW 44 61 24 33 1005.6 1005.5 0.0
24/12:00pm 14.6 5.1 3.9 48 5.0 WNW 43 59 23 32 1005.7 1005.6 0.0
24/11:30am 14.8 5.2 4.2 49 5.0 WNW 44 65 24 35 1005.8 1005.7 0.0
24/11:00am 14.1 5.1 4.8 53 4.4 WNW 41 59 22 32 1005.7 1005.6 0.0
24/10:30am 14.3 5.7 4.8 53 4.5 WNW 39 57 21 31 1005.8 1005.7 0.0
24/10:20am 14.6 5.7 5.2 53 4.5 WNW 41 63 22 34 1005.7 1005.6 0.0
24/10:00am 14.1 5.7 5.6 56 4.1 WNW 39 54 21 29 1005.9 1005.8 0.0
24/09:38am 13.9 5.9 5.6 57 4.0 WNW 37 56 20 30 1006.0 1005.9 0.0
24/09:30am 13.1 6.3 6.8 65 3.1 WNW 32 46 17 25 1006.1 1006.0 0.0
24/09:00am 13.5 6.8 7.5 67 3.0 WNW 32 50 17 27 1006.2 1006.1 0.0
24/08:58am 13.3 6.6 7.3 67 3.0 WNW 32 50 17 27 1006.1 1006.0 0.0
24/08:30am 12.4 5.2 7.6 72 2.4 WNW 35 48 19 26 1006.0 1005.9 0.0
24/08:00am 11.7 4.6 7.9 77 1.9 WNW 35 50 19 27 1005.8 1005.7 0.0
24/07:47am 11.6 5.4 8.0 78 1.8 WNW 30 48 16 26 1005.7 1005.6 0.0
24/07:30am 11.1 6.1 8.1 82 1.5 WNW 24 37 13 20 1005.7 1005.6 0.0
24/07:00am 10.6 5.2 8.2 85 1.2 NW 26 35 14 19 1005.3 1005.2 0.0
24/06:30am 10.3 5.3 8.1 86 1.1 NW 24 35 13 19 1005.1 1005.0 0.0
24/06:00am 10.5 5.2 8.5 87 1.0 WNW 26 39 14 21 1004.9 1004.8 0.0
24/05:30am 10.6 5.7 8.4 86 1.1 NW 24 32 13 17 1004.7 1004.6 0.0
24/05:00am 10.4 5.5 8.4 87 1.0 WNW 24 35 13 19 1004.5 1004.4 0.0
24/04:30am 10.6 5.3 8.4 86 1.1 WNW 26 35 14 19 1004.2 1004.1 0.0
24/04:00am 10.7 5.8 8.3 85 1.2 WNW 24 37 13 20 1004.1 1004.0 0.0
24/03:30am 10.9 5.9 8.1 83 1.4 WNW 24 37 13 20 1003.8 1003.7 0.0
24/03:00am 11.1 5.6 7.7 79 1.7 WNW 26 39 14 21 1003.8 1003.7 0.0
24/02:30am 10.9 5.3 7.2 78 1.8 WNW 26 41 14 22 1003.9 1003.8 0.0
24/02:00am 11.2 5.9 6.6 73 2.2 NW 24 33 13 18 1004.1 1004.0 0.0
24/01:30am 11.2 6.6 6.6 73 2.2 NW 20 32 11 17 1004.1 1004.0 0.0
24/01:00am 11.3 6.4 7.0 75 2.1 WNW 22 32 12 17 1004.6 1004.5 0.0
24/12:30am 11.4 6.3 7.5 77 1.9 WNW 24 35 13 19 1004.7 1004.6 0.0
24/12:00am 11.2 6.9 7.8 79 1.7 NW 20 28 11 15 1004.8 1004.7 0.0
 
Date/Time
CST
Temp
°C
App
Temp
°C
Dew
Point
°C
Rel
Hum
%
Delta-T
°C
Wind Press
QNH
hPa
Press
MSL
hPa
Rain since
9am
mm
Dir  Spd
km/h
Gust
km/h
Spd
kts
Gust
kts
23/11:30pm 11.0 7.4 8.2 83 1.4 WNW 17 24 9 13 1004.9 1004.8 0.0
23/11:00pm 11.2 7.2 8.2 82 1.5 WNW 19 24 10 13 1005.1 1005.0 0.0
23/10:30pm 11.5 6.6 8.5 82 1.5 W 24 32 13 17 1005.2 1005.1 0.0
23/10:00pm 11.3 6.7 8.3 82 1.5 W 22 28 12 15 1005.4 1005.3 0.0
23/09:30pm 11.6 7.0 8.0 78 1.8 W 22 32 12 17 1005.3 1005.2 0.0
23/09:00pm 11.8 7.2 8.2 78 1.8 W 22 33 12 18 1005.3 1005.2 0.0
23/08:30pm 12.5 7.5 7.9 73 2.3 W 24 35 13 19 1004.9 1004.8 0.0
23/08:00pm 12.7 7.4 8.4 75 2.2 WSW 26 37 14 20 1004.6 1004.5 0.0
23/07:30pm 13.1 7.4 8.2 72 2.5 WSW 28 37 15 20 1004.2 1004.1 0.0
23/07:00pm 13.5 8.0 7.7 68 2.9 W 26 39 14 21 1003.7 1003.6 0.0
23/06:30pm 14.0 8.1 7.6 65 3.2 W 28 41 15 22 1003.4 1003.3 0.0
23/06:00pm 14.6 7.9 7.4 62 3.6 W 32 44 17 24 1002.7 1002.6 0.0
23/05:36pm 15.4 8.5 7.3 58 4.1 W 33 52 18 28 1002.7 1002.6 0.0
23/05:30pm 15.5 8.2 7.2 57 4.2 W 35 50 19 27 1002.6 1002.5 0.0
23/05:00pm 16.3 8.5 6.5 52 4.9 W 37 57 20 31 1002.4 1002.3 0.0
23/04:30pm 17.0 8.9 7.2 52 5.0 W 39 59 21 32 1002.3 1002.2 0.0
23/04:00pm 17.9 9.5 8.8 55 4.8 W 43 70 23 38 1001.9 1001.8 0.0
23/03:30pm 18.7 10.0 7.5 48 5.8 W 43 61 23 33 1001.6 1001.5 0.0
23/03:00pm 18.9 9.9 6.3 43 6.4 W 43 61 23 33 1001.5 1001.4 0.0
23/02:30pm 19.6 11.1 7.0 44 6.5 W 41 65 22 35 1001.5 1001.4 0.0
23/02:00pm 19.4 10.1 7.7 46 6.1 W 46 70 25 38 1001.0 1000.9 0.0
23/01:30pm 19.9 10.3 9.6 51 5.6 W 50 69 27 37 1000.7 1000.6 0.0
23/01:00pm 20.1 10.7 8.9 48 6.0 W 48 67 26 36 1000.4 1000.3 0.0
23/12:30pm 21.2 12.4 9.7 47 6.3 W 46 69 25 37 1000.2 1000.1 0.0
23/12:00pm 21.9 11.8 7.3 39 7.7 W 50 74 27 40 999.6 999.4 0.0
23/11:30am 22.4 14.2 8.0 39 7.7 WNW 41 59 22 32 999.2 999.0 0.0
23/11:00am 22.2 15.1 8.2 40 7.5 WNW 35 56 19 30 998.8 998.7 0.0
23/10:58am 22.3 15.4 8.9 42 7.2 WNW 35 54 19 29 998.8 998.7 0.0
23/10:30am 21.4 13.7 8.6 44 6.9 WNW 39 54 21 29 999.1 998.9 0.0
23/10:10am 21.6 14.9 8.1 42 7.2 WNW 33 52 18 28 998.8 998.7 0.0
23/10:00am 21.3 14.2 7.9 42 7.1 WNW 35 50 19 27 998.7 998.6 0.0
23/09:54am 21.2 14.9 7.5 41 7.2 WNW 30 50 16 27 998.6 998.5 0.0
23/09:30am 20.7 14.8 7.6 42 6.9 NW 28 43 15 23 998.5 998.4 0.0
23/09:00am 20.5 14.0 6.5 40 7.2 NW 30 46 16 25 998.3 998.2 0.0
23/08:38am 20.6 14.0 4.4 34 8.0 NW 28 46 15 25 998.0 997.9 0.0
23/08:30am 20.4 13.8 4.1 34 8.0 NW 28 41 15 22 997.5 997.4 0.0
23/08:00am 20.3 14.6 3.0 32 8.2 NW 22 32 12 17 997.0 996.8 0.0
23/07:30am 19.9 14.7 2.4 31 8.3 NW 19 26 10 14 996.7 996.5 0.0
23/07:00am 16.0 13.5 4.8 47 5.4 NNE 7 11 4 6 996.0 995.8 0.0
23/06:30am 11.8 10.5 6.2 68 2.7 ENE 2 9 1 5 995.9 995.7 0.0
23/06:00am 11.5 9.9 6.5 71 2.4 E 4 9 2 5 996.1 995.9 0.0
23/05:30am 11.5 9.0 6.5 71 2.4 NE 9 13 5 7 996.1 995.9 0.0
23/05:00am 12.3 9.9 6.8 69 2.7 NE 9 13 5 7 996.5 996.3 0.0
23/04:30am 13.1 11.4 6.1 62 3.4 SE 4 13 2 7 997.0 996.8 0.0
23/04:00am 14.3 13.1 6.6 60 3.8 SE 2 9 1 5 997.3 997.2 0.0
23/03:30am 17.3 13.3 4.8 43 6.1 SE 15 24 8 13 997.4 997.3 0.0
23/03:00am 21.1 14.8 1.5 27 9.2 W 24 48 13 26 998.5 998.4 0.0
23/02:58am 18.9 13.2 2.9 34 7.5 WNW 22 48 12 26 998.6 998.5 0.0
23/02:45am 18.5 14.4 2.2 33 7.5 NNE 13 22 7 12 997.3 997.2 0.0
23/02:30am 13.0 11.7 7.6 70 2.7 NNE 4 7 2 4 997.8 997.7 0.0
23/02:00am 14.3 11.5 7.1 62 3.6 ENE 11 13 6 7 998.7 998.6 0.0
23/01:30am 14.3 11.4 8.0 66 3.2 NE 13 17 7 9 999.9 999.7 0.0
23/01:00am 13.8 12.0 9.4 75 2.3 NE 9 11 5 6 1001.1 1001.0 0.0
23/12:30am 14.2 11.8 8.8 70 2.8 SSE 11 17 6 9 1002.4 1002.3 0.0
23/12:00am 14.5 14.6 10.2 75 2.3 CALM 0 0 0 0 1002.9 1002.7 0.0
 
Date/Time
CST
Temp
°C
App
Temp
°C
Dew
Point
°C
Rel
Hum
%
Delta-T
°C
Wind Press
QNH
hPa
Press
MSL
hPa
Rain since
9am
mm
Dir  Spd
km/h
Gust
km/h
Spd
kts
Gust
kts
22/11:30pm 15.3 13.9 9.6 69 3.0 ENE 7 9 4 5 1003.2 1003.0 0.0
22/11:00pm 14.5 12.1 10.0 74 2.4 NE 13 17 7 9 1003.2 1003.0 0.0
22/10:30pm 14.6 12.8 9.4 71 2.7 NE 9 13 5 7 1003.3 1003.2 0.0
22/10:00pm 14.7 12.9 9.3 70 2.8 SW 9 17 5 9 1003.8 1003.7 0.0
22/09:30pm 16.1 14.3 9.5 65 3.5 NE 9 9 5 5 1003.7 1003.6 0.0
22/09:00pm 15.8 14.1 9.8 67 3.2 ESE 9 17 5 9 1003.7 1003.6 0.0
22/08:30pm 16.9 15.0 8.9 59 4.2 NNE 9 11 5 6 1003.8 1003.7 0.0
22/08:00pm 16.7 15.5 10.4 66 3.4 NE 7 9 4 5 1004.0 1003.9 0.0
22/07:30pm 17.1 16.2 10.5 65 3.6 NE 6 6 3 3 1003.9 1003.8 0.0
22/07:00pm 18.4 17.3 10.8 61 4.2 ENE 7 9 4 5 1003.9 1003.8 0.0
22/06:30pm 20.8 19.3 10.7 52 5.6 ENE 9 11 5 6 1004.0 1003.9 0.0
22/06:00pm 23.4 21.8 10.1 43 7.4 NE 9 11 5 6 1004.0 1003.9 0.0
22/05:30pm 26.0 23.9 6.6 29 10.3 N 7 9 4 5 1004.2 1004.1 0.0
22/05:00pm 26.7 23.7 6.1 27 10.8 NNW 11 15 6 8 1004.2 1004.1 0.0
22/04:30pm 26.9 22.7 5.5 25 11.2 NW 17 20 9 11 1004.3 1004.2 0.0
22/04:00pm 27.3 23.4 7.1 27 10.9 WNW 17 22 9 12 1004.4 1004.3 0.0
22/03:30pm 27.3 22.3 4.7 23 11.7 NW 20 30 11 16 1004.3 1004.2 0.0
22/03:00pm 27.3 21.9 4.7 23 11.7 WNW 22 33 12 18 1004.5 1004.4 0.0
22/02:30pm 27.1 21.8 5.0 24 11.5 NW 22 32 12 17 1004.6 1004.5 0.0
22/02:00pm 27.0 22.2 9.0 32 10.0 NW 24 39 13 21 1004.8 1004.7 0.0
22/01:30pm 26.8 22.1 7.7 29 10.4 NW 22 33 12 18 1004.9 1004.8 0.0
22/01:00pm 26.0 23.5 9.8 36 9.1 NNW 13 20 7 11 1005.3 1005.2 0.0
22/12:30pm 25.6 23.4 9.4 36 9.0 N 11 22 6 12 1005.7 1005.6 0.0
22/12:00pm 24.7 22.4 10.5 40 8.0 NNE 13 22 7 12 1005.9 1005.8 0.0
22/11:30am 24.2 21.9 11.7 45 7.2 NNE 15 22 8 12 1006.4 1006.4 0.0
22/11:00am 23.1 20.0 10.4 44 7.1 NNE 17 20 9 11 1007.0 1006.9 0.0
22/10:30am 21.8 18.4 11.1 50 6.0 N 20 28 11 15 1007.5 1007.4 0.0
22/10:00am 20.5 16.9 10.5 52 5.5 N 20 30 11 16 1008.0 1007.9 0.0
22/09:30am 19.7 16.6 11.5 59 4.6 NNE 19 28 10 15 1008.3 1008.2 0.0
22/09:00am 17.6 16.0 11.7 68 3.3 NE 11 19 6 10 1008.7 1008.6 0.0
22/08:30am 15.5 14.2 11.3 76 2.3 NE 9 15 5 8 1008.8 1008.7 0.0
22/08:00am 13.9 12.4 10.5 80 1.8 ENE 9 13 5 7 1009.3 1009.2 0.0
22/07:30am 12.2 10.8 9.5 83 1.4 ENE 7 9 4 5 1009.2 1009.1 0.0
22/07:00am 10.3 8.3 8.5 89 0.9 ENE 9 11 5 6 1009.1 1009.0 0.0
22/06:30am 8.8 6.5 7.3 90 0.7 ENE 9 11 5 6 1009.0 1008.9 0.0
22/06:00am 8.8 5.9 6.7 87 1.0 ENE 11 13 6 7 1008.9 1008.8 0.0
22/05:30am 8.5 6.0 6.6 88 0.9 ENE 9 13 5 7 1008.8 1008.7 0.0
22/05:00am 8.6 5.7 6.5 87 1.0 ENE 11 13 6 7 1008.8 1008.7 0.0
22/04:30am 8.9 5.6 6.6 85 1.1 ENE 13 17 7 9 1008.7 1008.6 0.0
22/04:00am 8.6 5.8 6.9 89 0.8 ENE 11 13 6 7 1009.1 1009.0 0.0
22/03:30am 8.4 5.7 7.4 93 0.5 ENE 11 13 6 7 1009.3 1009.2 0.0
22/03:00am 8.5 5.5 7.7 95 0.4 NE 13 15 7 8 1009.5 1009.5 0.0
22/02:30am 8.8 5.8 7.8 93 0.5 NE 13 17 7 9 1009.9 1009.9 0.0
22/02:00am 8.9 5.9 7.9 93 0.5 NE 13 17 7 9 1010.2 1010.2 0.0
22/01:30am 8.7 6.1 7.7 93 0.5 NE 11 15 6 8 1010.8 1010.7 0.0
22/01:00am 8.8 6.2 7.8 93 0.5 ENE 11 19 6 10 1011.1 1011.0 0.0
22/12:30am 8.7 5.7 7.7 93 0.5 NE 13 17 7 9 1011.5 1011.4 0.0
22/12:00am 8.8 6.3 8.0 95 0.4 NE 11 15 6 8 1011.6 1011.5 0.0

Latest Capital City Observations: Canberra | Sydney | Melbourne | Brisbane | Adelaide | Perth | Hobart | Darwin

Other Formats:

Comma delimited format used in spreadsheet applications
http://www.bom.gov.au/fwo/IDS60901/IDS60901.94681.axf

JavaScript Object Notation format (JSON) in row-major order
http://www.bom.gov.au/fwo/IDS60901/IDS60901.94681.json